EmailTwitter


Observations de surface / Royaume-Uni / EGLL (03772)

Régions: Québec | Canada | États-Unis | Europe | France | UK | Ailleurs
Station
Affichage
Infos & localisation pour EGLL (03772) | Aide pour décoder les METARs

Observations prises le 2018-09-24 à 07H20 UTC à LONDON/HEATHROW, UK (EGLL)

Température: 8.0 Celsius

Point de rosée: 6.0 Celsius

Humidité relative: 87%

Vents: Variable à 6 km/h ou 3 noeuds.

Pression au niveau moyen de la mer: 103.70 kilopascals.

Visibilité horizontale: 6.21 milles terrestres ou 9.94 kilomètres.

Observation METAR:

EGLL 240720Z AUTO VRB03KT 9999 NCD 08/06 Q1037 NOSIG=